Time;durP1;ratioP1;P1;durP2;ratioP2;P2;SDS_P1;SDS_P2;PMS_P1;PMS_P2;Temp;Humidity;BMP_temperature;BMP_pressure;BME280_temperature;BME280_humidity;BME280_pressure;Samples;Min_cycle;Max_cycle;Signal;HPM_P1;HPM_P2
2023/07/09 00:01:14;;;;;;;6.60;3.73;;;;;;;19.08;55.43;100593.19;4186077;28;20239;-72
2023/07/09 00:03:41;;;;;;;8.23;3.50;;;;;;;19.02;55.73;100594.00;4196601;28;22108;-68
2023/07/09 00:06:08;;;;;;;6.23;3.83;;;;;;;18.95;55.88;100588.47;4185401;28;20237;-67
2023/07/09 00:08:34;;;;;;;5.63;3.37;;;;;;;18.94;56.17;100603.25;4188665;28;20233;-70
2023/07/09 00:11:01;;;;;;;9.03;3.60;;;;;;;18.89;56.32;100603.81;4182380;28;20237;-68
2023/07/09 00:13:28;;;;;;;8.30;3.80;;;;;;;18.85;56.52;100597.00;4190495;28;20245;-69
2023/07/09 00:15:57;;;;;;;6.03;3.80;;;;;;;18.81;56.76;100599.28;4184506;28;20243;-68
2023/07/09 00:18:24;;;;;;;6.90;3.70;;;;;;;18.77;56.72;100606.22;4197489;28;20241;-68
2023/07/09 00:20:50;;;;;;;9.27;4.10;;;;;;;18.77;56.76;100595.25;4197548;28;20280;-70
2023/07/09 00:23:19;;;;;;;8.87;3.87;;;;;;;18.57;57.48;100603.31;4189859;28;20785;-69
2023/07/09 00:25:47;;;;;;;7.97;3.73;;;;;;;18.61;57.45;100592.78;4178181;28;20597;-68
2023/07/09 00:28:16;;;;;;;7.20;4.10;;;;;;;18.52;57.57;100592.09;4174723;28;20299;-68
2023/07/09 00:30:44;;;;;;;10.07;4.13;;;;;;;18.47;58.01;100594.53;4195617;28;20780;-66
2023/07/09 00:33:15;;;;;;;11.17;3.83;;;;;;;18.45;58.10;100597.50;4196296;28;20612;-69
2023/07/09 00:35:48;;;;;;;8.30;3.63;;;;;;;18.46;57.99;100596.44;4191951;28;20272;-68
2023/07/09 00:38:21;;;;;;;6.60;3.23;;;;;;;18.42;58.14;100610.75;4198083;28;23572;-67
2023/07/09 00:41:04;;;;;;;8.00;3.73;;;;;;;18.37;58.36;100603.97;4193953;28;20305;-67
2023/07/09 00:43:35;;;;;;;5.90;3.63;;;;;;;18.33;58.62;100604.53;4196437;28;21871;-68
2023/07/09 00:46:11;;;;;;;8.40;3.60;;;;;;;18.29;58.63;100612.31;4192643;28;20232;-68
2023/07/09 00:48:37;;;;;;;7.17;3.50;;;;;;;18.30;58.64;100603.03;4194159;28;20889;-67
2023/07/09 00:51:20;;;;;;;8.60;3.67;;;;;;;18.25;58.88;100600.03;4194955;28;20815;-66
2023/07/09 00:53:49;;;;;;;10.00;3.50;;;;;;;18.14;59.32;100611.50;4187877;28;20232;-71
2023/07/09 00:56:38;;;;;;;8.27;4.03;;;;;;;18.11;59.49;100614.63;4193772;28;20245;-70
2023/07/09 00:59:07;;;;;;;6.60;3.87;;;;;;;18.13;59.47;100601.56;4194371;28;20765;-69
2023/07/09 01:01:34;;;;;;;7.30;4.00;;;;;;;18.06;59.69;100598.75;4197762;28;20225;-67
2023/07/09 01:04:03;;;;;;;7.63;3.80;;;;;;;18.07;59.79;100605.09;4188129;28;24082;-69
2023/07/09 01:06:41;;;;;;;9.57;4.07;;;;;;;18.01;59.92;100593.00;4170742;28;21743;-71
2023/07/09 01:09:08;;;;;;;6.90;3.67;;;;;;;18.02;59.91;100602.94;4183765;28;20236;-69
2023/07/09 01:11:37;;;;;;;9.10;4.03;;;;;;;18.03;59.69;100605.47;4193267;28;20232;-69
2023/07/09 01:14:06;;;;;;;8.43;3.57;;;;;;;17.99;59.98;100600.56;4191209;28;20229;-69
2023/07/09 01:16:37;;;;;;;6.37;3.97;;;;;;;17.98;60.15;100607.94;4198863;28;22356;-69
2023/07/09 01:19:05;;;;;;;9.77;3.83;;;;;;;17.96;59.85;100606.44;4183163;28;25390;-70
2023/07/09 01:21:32;;;;;;;9.37;3.97;;;;;;;17.81;60.60;100612.75;4169987;28;21220;-69
2023/07/09 01:24:10;;;;;;;11.63;3.90;;;;;;;17.81;60.66;100603.69;4175301;28;21056;-72
2023/07/09 01:26:38;;;;;;;7.83;4.73;;;;;;;17.85;60.54;100597.63;4197965;28;22208;-70
2023/07/09 01:29:05;;;;;;;8.27;3.83;;;;;;;17.80;60.76;100597.38;4192896;28;20243;-69
2023/07/09 01:31:32;;;;;;;9.33;4.17;;;;;;;17.74;60.97;100607.19;4190766;28;20233;-68
2023/07/09 01:33:59;;;;;;;7.53;3.73;;;;;;;17.73;61.09;100602.75;4192995;28;20656;-71
2023/07/09 01:36:25;;;;;;;6.20;3.77;;;;;;;17.74;61.15;100606.34;4190207;28;20331;-69
2023/07/09 01:38:53;;;;;;;7.80;4.00;;;;;;;17.71;61.20;100612.19;4180689;28;20617;-70
2023/07/09 01:41:20;;;;;;;8.73;3.93;;;;;;;17.69;61.26;100612.41;4198476;28;20237;-68
2023/07/09 01:43:46;;;;;;;8.77;4.23;;;;;;;17.63;61.33;100610.44;4186638;28;20603;-71
2023/07/09 01:46:14;;;;;;;11.30;4.33;;;;;;;17.58;61.44;100604.66;4181224;28;20239;-70
2023/07/09 01:48:41;;;;;;;11.53;4.57;;;;;;;17.58;61.69;100610.13;4192096;28;20241;-71
2023/07/09 01:51:12;;;;;;;10.77;4.60;;;;;;;17.56;61.62;100612.22;4192768;28;20295;-68
2023/07/09 01:53:39;;;;;;;8.70;4.37;;;;;;;17.51;61.96;100609.19;4174878;28;20284;-69
2023/07/09 01:56:10;;;;;;;11.93;4.70;;;;;;;17.41;62.27;100609.47;4186463;28;25177;-68
2023/07/09 01:58:41;;;;;;;8.37;4.50;;;;;;;17.37;62.65;100616.38;4185548;28;20244;-70
2023/07/09 02:01:09;;;;;;;7.10;4.50;;;;;;;17.43;62.29;100608.25;4195073;28;20539;-68
2023/07/09 02:03:35;;;;;;;8.37;4.43;;;;;;;17.44;61.91;100617.31;4174697;28;20240;-70
2023/07/09 02:06:09;;;;;;;13.73;4.07;;;;;;;17.38;62.30;100618.91;4194122;28;20263;-66
2023/07/09 02:08:36;;;;;;;9.37;4.50;;;;;;;17.41;62.09;100618.53;4192988;28;20305;-67
2023/07/09 02:11:03;;;;;;;8.50;4.13;;;;;;;17.37;62.34;100619.13;4193462;28;20627;-68
2023/07/09 02:13:30;;;;;;;10.33;4.63;;;;;;;17.32;62.32;100614.19;4190609;28;20252;-70
2023/07/09 02:15:56;;;;;;;11.47;4.67;;;;;;;17.26;62.69;100621.25;4185719;28;20439;-66
2023/07/09 02:18:23;;;;;;;11.27;4.77;;;;;;;17.26;62.49;100610.31;4191665;28;20231;-71
2023/07/09 02:20:49;;;;;;;10.50;4.47;;;;;;;17.25;62.84;100608.63;4195118;28;20283;-68
2023/07/09 02:23:16;;;;;;;5.50;3.93;;;;;;;17.19;62.66;100614.84;4194310;28;21597;-69
2023/07/09 02:25:43;;;;;;;10.07;4.43;;;;;;;17.22;62.71;100616.34;4192842;28;23437;-68
2023/07/09 02:28:09;;;;;;;10.27;4.90;;;;;;;17.18;62.88;100610.41;4192839;28;20254;-66
2023/07/09 02:30:36;;;;;;;8.03;4.13;;;;;;;17.22;62.73;100608.97;4204372;28;20792;-69
2023/07/09 02:33:02;;;;;;;7.40;4.40;;;;;;;17.17;62.87;100616.06;4195704;28;20229;-68
2023/07/09 02:35:29;;;;;;;9.27;4.30;;;;;;;17.08;63.37;100616.16;4188229;28;22293;-68
2023/07/09 02:37:56;;;;;;;7.23;4.27;;;;;;;17.05;63.18;100616.50;4175796;28;20509;-68
2023/07/09 02:40:22;;;;;;;10.40;4.53;;;;;;;17.00;63.91;100616.22;4194405;28;20241;-68
2023/07/09 02:42:49;;;;;;;7.97;4.23;;;;;;;16.95;63.84;100618.66;4180423;28;20260;-68
2023/07/09 02:45:15;;;;;;;13.87;5.47;;;;;;;16.96;63.80;100617.59;4189039;28;20609;-72
2023/07/09 02:47:42;;;;;;;10.57;6.03;;;;;;;16.89;63.98;100622.09;4212808;28;20236;-66
2023/07/09 02:50:09;;;;;;;12.13;6.60;;;;;;;16.89;64.05;100617.47;4196289;28;20228;-65
2023/07/09 02:52:36;;;;;;;11.97;6.30;;;;;;;16.87;63.93;100608.59;4214169;28;20781;-68
2023/07/09 02:55:03;;;;;;;9.17;5.40;;;;;;;16.83;64.36;100617.38;4208863;28;21573;-69
2023/07/09 02:57:29;;;;;;;10.07;5.20;;;;;;;16.77;64.35;100632.59;4203403;28;20705;-69
2023/07/09 02:59:56;;;;;;;12.40;5.67;;;;;;;16.73;64.64;100631.28;4195171;28;23064;-68
2023/07/09 03:02:23;;;;;;;11.13;5.70;;;;;;;16.69;64.78;100625.34;4202797;28;20236;-71
2023/07/09 03:04:49;;;;;;;9.27;4.93;;;;;;;16.70;64.83;100621.56;4196093;28;20235;-69
2023/07/09 03:07:17;;;;;;;11.07;5.27;;;;;;;16.66;65.16;100622.97;4208252;28;21864;-67
2023/07/09 03:09:43;;;;;;;10.13;5.03;;;;;;;16.68;65.05;100629.09;4207427;28;21148;-67
2023/07/09 03:12:10;;;;;;;11.07;4.83;;;;;;;16.63;65.40;100626.06;4197703;28;22598;-69
2023/07/09 03:14:37;;;;;;;8.03;4.70;;;;;;;16.59;65.69;100627.47;4205134;28;20244;-70
2023/07/09 03:17:03;;;;;;;7.53;4.83;;;;;;;16.59;65.60;100620.13;4180082;28;20247;-68
2023/07/09 03:19:30;;;;;;;10.47;5.57;;;;;;;16.70;65.10;100632.50;4200391;28;20418;-67
2023/07/09 03:21:59;;;;;;;10.47;5.60;;;;;;;16.61;65.52;100628.13;4177666;28;20240;-69
2023/07/09 03:24:26;;;;;;;9.03;5.37;;;;;;;16.63;65.52;100632.38;4201174;28;20234;-70
2023/07/09 03:26:52;;;;;;;13.13;5.33;;;;;;;16.60;65.98;100637.34;4203818;28;20327;-68
2023/07/09 03:29:20;;;;;;;10.93;5.27;;;;;;;16.63;65.51;100639.75;4211421;28;20871;-73
2023/07/09 03:31:49;;;;;;;8.37;4.50;;;;;;;16.62;66.00;100640.78;4197494;28;20237;-69
2023/07/09 03:34:15;;;;;;;12.00;5.13;;;;;;;16.64;65.78;100638.72;4200227;28;20237;-70
2023/07/09 03:36:42;;;;;;;9.47;5.03;;;;;;;16.74;65.27;100644.75;4210903;28;20234;-74
2023/07/09 03:39:08;;;;;;;11.40;5.07;;;;;;;16.67;65.56;100654.72;4192888;28;20233;-71
2023/07/09 03:41:35;;;;;;;8.23;5.30;;;;;;;16.66;65.91;100650.28;4194338;28;20716;-70
2023/07/09 03:44:02;;;;;;;12.03;5.77;;;;;;;16.72;65.59;100657.78;4197529;28;21141;-74
2023/07/09 03:46:29;;;;;;;7.10;4.70;;;;;;;16.77;65.29;100652.63;4208936;28;20383;-68
2023/07/09 03:48:58;;;;;;;9.83;5.10;;;;;;;16.79;65.32;100657.88;4182728;28;20300;-68
2023/07/09 03:51:25;;;;;;;8.60;5.17;;;;;;;16.85;65.10;100659.03;4185210;28;20461;-71
2023/07/09 03:53:51;;;;;;;12.53;5.10;;;;;;;16.93;64.76;100657.13;4211104;28;20307;-70
2023/07/09 03:56:18;;;;;;;7.87;4.50;;;;;;;17.03;64.22;100659.59;4225080;28;20234;-71
2023/07/09 03:58:46;;;;;;;8.40;4.57;;;;;;;17.11;64.01;100655.94;4182300;28;20243;-70
2023/07/09 04:01:12;;;;;;;12.70;4.27;;;;;;;17.09;64.03;100653.41;4185443;28;20245;-68
2023/07/09 04:03:39;;;;;;;6.73;4.00;;;;;;;17.09;63.82;100658.00;4198382;28;20898;-67
2023/07/09 04:06:06;;;;;;;5.97;3.83;;;;;;;17.21;63.20;100652.94;4182347;28;22900;-73
2023/07/09 04:08:32;;;;;;;8.33;4.20;;;;;;;17.28;63.29;100662.09;4197151;28;21643;-70
2023/07/09 04:11:00;;;;;;;9.80;4.07;;;;;;;17.32;62.77;100657.09;4188659;28;21764;-71
2023/07/09 04:13:28;;;;;;;8.23;4.17;;;;;;;17.37;62.90;100665.63;4192613;28;20288;-68
2023/07/09 04:15:56;;;;;;;8.93;3.60;;;;;;;17.50;62.26;100654.88;4201231;28;20233;-67
2023/07/09 04:18:22;;;;;;;7.03;3.90;;;;;;;17.72;61.54;100666.75;4183116;28;20238;-69
2023/07/09 04:20:50;;;;;;;7.53;3.67;;;;;;;17.77;61.21;100657.97;4193097;28;20244;-71
2023/07/09 04:23:17;;;;;;;7.30;3.70;;;;;;;17.92;60.53;100663.47;4190896;28;20273;-74
2023/07/09 04:25:44;;;;;;;6.33;3.50;;;;;;;17.95;60.30;100663.09;4195780;28;21811;-73
2023/07/09 04:28:10;;;;;;;8.40;3.77;;;;;;;18.05;60.11;100665.56;4194123;28;24148;-70
2023/07/09 04:30:37;;;;;;;7.50;3.30;;;;;;;18.16;59.76;100675.19;4189985;28;20236;-69
2023/07/09 04:33:03;;;;;;;8.30;2.90;;;;;;;18.25;59.27;100668.53;4189828;28;20280;-68
2023/07/09 04:35:30;;;;;;;6.73;3.70;;;;;;;18.29;59.25;100669.84;4185685;28;20836;-70
2023/07/09 04:37:56;;;;;;;8.00;3.30;;;;;;;18.45;58.40;100679.72;4188670;28;21655;-67
2023/07/09 04:40:24;;;;;;;6.13;3.47;;;;;;;18.49;58.33;100674.69;4183750;28;20229;-65
2023/07/09 04:42:50;;;;;;;8.90;3.33;;;;;;;18.49;58.40;100675.56;4194602;28;20240;-65
2023/07/09 04:45:17;;;;;;;6.90;2.93;;;;;;;18.60;58.17;100676.09;4195646;28;20605;-64
2023/07/09 04:47:44;;;;;;;6.57;3.47;;;;;;;18.58;58.58;100679.03;4201751;28;20350;-66
2023/07/09 04:50:11;;;;;;;6.53;2.97;;;;;;;18.67;58.24;100688.84;4194360;28;20358;-74
2023/07/09 04:52:38;;;;;;;4.40;2.77;;;;;;;18.78;57.68;100673.75;4190464;28;20250;-68
2023/07/09 04:55:05;;;;;;;9.67;3.43;;;;;;;18.79;57.40;100672.72;4190559;28;21956;-66
2023/07/09 04:57:31;;;;;;;12.03;3.83;;;;;;;18.74;57.62;100682.56;4195317;28;20357;-68
2023/07/09 04:59:58;;;;;;;5.90;2.77;;;;;;;18.98;56.83;100684.09;4211866;28;20233;-69
2023/07/09 05:02:25;;;;;;;6.23;2.47;;;;;;;19.04;56.76;100679.72;4197608;28;20237;-67
2023/07/09 05:04:52;;;;;;;3.10;2.37;;;;;;;19.08;56.44;100684.63;4200842;28;20366;-66
2023/07/09 05:07:18;;;;;;;4.80;2.43;;;;;;;19.13;56.10;100678.53;4208576;28;20240;-66
2023/07/09 05:09:45;;;;;;;7.63;2.80;;;;;;;19.23;56.23;100675.44;4200940;28;20474;-44
2023/07/09 05:12:12;;;;;;;4.00;2.40;;;;;;;19.11;56.30;100677.88;4196644;28;22087;-46
2023/07/09 05:14:39;;;;;;;5.97;2.30;;;;;;;19.51;55.32;100674.56;4200392;28;20900;-42
2023/07/09 05:17:06;;;;;;;7.00;2.60;;;;;;;19.47;55.20;100674.13;4191387;28;20228;-40
2023/07/09 05:19:33;;;;;;;5.80;2.57;;;;;;;19.23;55.88;100683.66;4199320;28;20228;-56
2023/07/09 05:22:00;;;;;;;5.47;2.50;;;;;;;19.51;54.68;100680.94;4202278;28;20312;-46
2023/07/09 05:24:27;;;;;;;8.23;2.53;;;;;;;19.64;55.05;100689.25;4196531;28;20937;-49
2023/07/09 05:26:55;;;;;;;6.10;2.73;;;;;;;19.98;54.11;100686.72;4203108;28;20279;-48
2023/07/09 05:29:22;;;;;;;5.00;2.30;;;;;;;20.10;53.73;100695.25;4188410;28;22082;-55
2023/07/09 05:33:40;;;;;;;5.10;2.50;;;;;;;20.80;52.09;100697.84;4274849;28;21027;-71
2023/07/09 05:36:13;;;;;;;3.43;2.10;;;;;;;21.03;50.61;100700.19;4220622;28;20243;-70
2023/07/09 05:38:40;;;;;;;4.87;2.20;;;;;;;21.23;50.29;100699.34;4223518;28;20235;-68
2023/07/09 05:41:07;;;;;;;5.33;2.17;;;;;;;21.46;49.25;100689.78;4243536;28;21104;-68
2023/07/09 05:43:34;;;;;;;4.10;1.90;;;;;;;21.79;48.24;100692.53;4240950;28;20231;-69
2023/07/09 05:46:05;;;;;;;5.17;2.20;;;;;;;22.09;47.67;100693.94;4240842;28;20333;-68
2023/07/09 05:48:33;;;;;;;5.23;2.60;;;;;;;22.03;47.59;100690.13;4235843;28;20425;-68
2023/07/09 05:51:00;;;;;;;3.90;2.07;;;;;;;22.41;46.83;100692.13;4250955;28;20239;-68
2023/07/09 05:53:27;;;;;;;10.83;2.20;;;;;;;22.85;45.03;100691.47;4301022;28;20310;-73
2023/07/09 05:55:56;;;;;;;7.13;2.10;;;;;;;23.37;43.89;100696.81;4262103;28;20231;-76
2023/07/09 05:58:23;;;;;;;5.17;1.80;;;;;;;23.87;42.75;100707.78;4227664;28;20286;-75
2023/07/09 06:00:53;;;;;;;6.70;2.17;;;;;;;23.99;41.68;100696.00;4234491;28;20327;-72
2023/07/09 06:03:21;;;;;;;3.53;1.70;;;;;;;23.36;42.31;100709.78;4277886;28;20422;-76
2023/07/09 06:05:49;;;;;;;4.77;2.10;;;;;;;22.47;44.22;100709.72;4256573;28;20990;-77
2023/07/09 06:08:17;;;;;;;4.33;1.63;;;;;;;22.57;44.56;100703.72;4278988;28;20364;-76
2023/07/09 06:10:55;;;;;;;3.60;2.20;;;;;;;23.00;43.78;100704.94;4287541;28;20369;-73
2023/07/09 06:13:22;;;;;;;4.47;1.97;;;;;;;23.41;42.88;100695.31;4236111;28;20248;-78
2023/07/09 06:15:50;;;;;;;6.63;2.03;;;;;;;24.22;41.95;100703.59;4232333;28;21759;-58
2023/07/09 06:18:17;;;;;;;6.50;1.50;;;;;;;24.56;40.62;100704.00;4266848;28;20914;-73
2023/07/09 06:20:54;;;;;;;8.23;1.97;;;;;;;25.15;40.08;100695.88;4254312;28;20639;-73
2023/07/09 06:23:21;;;;;;;4.00;1.90;;;;;;;25.36;39.15;100704.72;4224889;28;22987;-77
2023/07/09 06:25:48;;;;;;;4.57;2.10;;;;;;;25.46;39.12;100696.66;4240732;28;20556;-77
2023/07/09 06:28:16;;;;;;;4.50;2.00;;;;;;;25.10;39.41;100695.75;4223973;28;20256;-74
2023/07/09 08:13:38;;;;;;;6.37;2.30;;;;;;;26.94;35.90;100713.13;4338212;27;20552;-73
2023/07/09 08:16:06;;;;;;;5.97;1.80;;;;;;;26.96;35.85;100710.94;4281944;28;20237;-72
2023/07/09 08:18:33;;;;;;;7.23;1.93;;;;;;;27.65;34.70;100709.84;4358449;28;21764;-72
2023/07/09 08:21:00;;;;;;;4.22;1.50;;;;;;;27.02;34.15;100709.94;4331541;28;22364;-74
2023/07/09 08:23:27;;;;;;;2.42;1.33;;;;;;;26.14;35.20;100714.84;4348588;27;25507;-74
2023/07/09 08:25:55;;;;;;;3.87;1.40;;;;;;;26.47;34.54;100714.16;4295171;28;20303;-76
2023/07/09 08:28:22;;;;;;;2.90;1.50;;;;;;;27.13;33.26;100708.19;4344467;27;20242;-72
2023/07/09 08:30:52;;;;;;;3.28;1.38;;;;;;;26.41;34.64;100709.56;4328302;27;20247;-73
2023/07/09 08:33:21;;;;;;;4.25;1.50;;;;;;;26.06;35.27;100716.03;4281943;27;20246;-73
2023/07/09 08:35:51;;;;;;;2.50;1.50;;;;;;;25.90;35.50;100712.94;4344843;27;23095;-77
2023/07/09 08:38:18;;;;;;;5.83;1.60;;;;;;;26.67;34.39;100713.69;4344636;28;20233;-72
2023/07/09 08:41:08;;;;;;;5.38;1.50;;;;;;;27.20;33.87;100706.09;4333504;27;20876;-74
2023/07/09 08:43:56;;;;;;;5.43;1.67;;;;;;;26.80;33.59;100695.94;4325755;28;20303;-72
2023/07/09 08:47:05;;;;;;;3.95;1.20;;;;;;;27.15;33.05;100705.97;4320253;28;20232;-74
2023/07/09 08:49:46;;;;;;;3.33;1.23;;;;;;;26.83;32.21;100703.78;4344773;28;20307;-78
2023/07/09 08:52:20;;;;;;;1.33;0.90;;;;;;;26.87;32.19;100693.84;4312488;28;25568;-76
2023/07/09 08:54:47;;;;;;;4.25;1.17;;;;;;;26.76;31.96;100702.22;4271497;28;22848;-73
2023/07/09 08:57:23;;;;;;;2.17;1.10;;;;;;;27.02;31.34;100692.41;4271609;28;22692;-71
2023/07/09 08:59:56;;;;;;;3.08;1.52;;;;;;;27.41;30.78;100698.06;4264620;28;20289;-73
2023/07/09 09:02:34;;;;;;;4.25;1.40;;;;;;;27.89;31.00;100692.13;4287181;28;22082;-75
2023/07/09 09:05:05;;;;;;;1.97;1.17;;;;;;;27.03;32.35;100702.44;4260160;28;20533;-71
2023/07/09 09:07:43;;;;;;;2.03;1.35;;;;;;;26.10;32.76;100701.47;4263045;28;20319;-75
2023/07/09 09:10:18;;;;;;;4.00;1.10;;;;;;;26.83;32.32;100703.78;4294263;28;20614;-72
2023/07/09 09:13:09;;;;;;;1.85;1.05;;;;;;;26.79;32.54;100704.53;4272198;28;22168;-76
2023/07/09 09:15:39;;;;;;;4.07;1.17;;;;;;;26.03;33.27;100697.97;4271638;28;21943;-73
2023/07/09 09:18:18;;;;;;;2.80;1.20;;;;;;;26.38;32.60;100687.88;4250828;28;20227;-71
2023/07/09 09:20:52;;;;;;;3.38;1.20;;;;;;;26.21;33.79;100696.16;4281059;28;20237;-72
2023/07/09 09:23:18;;;;;;;2.33;1.30;;;;;;;25.78;33.43;100687.97;4265955;28;21525;-74
2023/07/09 09:25:53;;;;;;;5.67;1.30;;;;;;;25.99;33.43;100687.59;4245900;28;20351;-75
2023/07/09 09:28:38;;;;;;;3.53;0.90;;;;;;;25.94;31.30;100693.88;4242896;28;21345;-68
2023/07/09 09:31:07;;;;;;;2.87;1.10;;;;;;;25.73;32.50;100700.88;4235237;28;23123;-71
2023/07/09 09:33:52;;;;;;;2.57;1.30;;;;;;;25.42;33.32;100695.47;4247946;28;20355;-72
2023/07/09 09:36:22;;;;;;;3.07;1.33;;;;;;;25.68;32.92;100693.28;4266297;28;21167;-68
2023/07/09 09:38:50;;;;;;;4.33;1.33;;;;;;;25.72;33.04;100691.72;4239541;28;20249;-71
2023/07/09 09:41:22;;;;;;;4.80;1.17;;;;;;;25.95;32.25;100698.34;4247770;28;20226;-75
2023/07/09 09:43:52;;;;;;;3.70;1.17;;;;;;;26.07;32.33;100688.09;4226535;28;20233;-72
2023/07/09 09:46:21;;;;;;;3.83;0.98;;;;;;;25.67;32.15;100697.19;4215526;28;20227;-75
2023/07/09 09:48:49;;;;;;;1.73;1.13;;;;;;;25.68;32.70;100695.22;4222788;28;21028;-78
2023/07/09 09:51:18;;;;;;;1.87;1.10;;;;;;;25.99;32.40;100693.97;4240906;28;20578;-77
2023/07/09 09:54:11;;;;;;;2.17;1.10;;;;;;;26.24;32.04;100687.31;4248679;28;20234;-72
2023/07/09 09:56:37;;;;;;;1.70;1.20;;;;;;;26.41;32.11;100693.78;4259495;28;20268;-77
2023/07/09 09:59:05;;;;;;;3.00;1.50;;;;;;;26.95;32.51;100694.50;4221844;28;21847;-79
2023/07/09 10:01:37;;;;;;;3.22;1.10;;;;;;;27.09;31.78;100701.44;4243037;28;20617;-69
2023/07/09 10:04:05;;;;;;;5.20;1.10;;;;;;;26.35;32.11;100693.91;4243024;28;20655;-76
2023/07/09 10:06:37;;;;;;;1.73;1.10;;;;;;;26.45;32.40;100688.59;4225326;28;20242;-70
2023/07/09 10:09:15;;;;;;;2.00;1.10;;;;;;;26.21;33.10;100687.81;4228958;28;20229;-75
2023/07/09 10:11:49;;;;;;;4.17;1.20;;;;;;;26.57;32.47;100694.09;4259294;28;20502;-76
2023/07/09 10:14:54;;;;;;;2.63;1.30;;;;;;;26.86;31.23;100685.75;4263324;28;21629;-74
2023/07/09 10:17:42;;;;;;;2.30;0.93;;;;;;;26.91;30.84;100688.63;4267528;28;20738;-73
2023/07/09 10:20:24;;;;;;;1.93;0.80;;;;;;;27.06;30.32;100696.41;4240577;28;20254;-72
2023/07/09 10:22:56;;;;;;;1.43;0.80;;;;;;;27.28;29.68;100690.06;4238999;28;20273;-74
2023/07/09 10:25:29;;;;;;;1.27;0.70;;;;;;;27.06;29.77;100688.06;4243248;28;20468;-73
2023/07/09 10:28:02;;;;;;;3.43;1.07;;;;;;;26.75;31.14;100679.16;4223340;28;20231;-70
2023/07/09 10:30:41;;;;;;;2.08;1.10;;;;;;;26.74;30.86;100688.56;4241338;28;20722;-74
2023/07/09 10:33:14;;;;;;;4.60;0.90;;;;;;;26.08;31.31;100675.91;4257050;28;20300;-71
2023/07/09 10:35:59;;;;;;;2.97;1.20;;;;;;;26.00;32.03;100670.69;4237713;28;23029;-72
2023/07/09 10:38:35;;;;;;;6.70;1.30;;;;;;;26.22;32.12;100678.38;4220692;28;20269;-72
2023/07/09 10:41:05;;;;;;;3.27;1.00;;;;;;;26.39;30.71;100679.31;4241980;28;20227;-74
2023/07/09 10:44:10;;;;;;;2.13;0.68;;;;;;;26.92;30.62;100681.97;4234241;28;20252;-71
2023/07/09 10:46:39;;;;;;;2.15;0.95;;;;;;;27.28;30.04;100676.19;4240856;28;20287;-72
2023/07/09 10:49:11;;;;;;;4.05;0.90;;;;;;;26.53;30.38;100665.97;4250516;28;20226;-70
2023/07/09 10:51:50;;;;;;;2.17;1.00;;;;;;;26.36;31.29;100665.91;4272421;28;20231;-71
2023/07/09 10:54:42;;;;;;;2.88;0.93;;;;;;;26.47;31.16;100675.31;4228912;28;20836;-71
2023/07/09 10:57:17;;;;;;;1.85;0.70;;;;;;;26.50;30.37;100660.91;4237334;28;20288;-75
2023/07/09 10:59:46;;;;;;;1.65;0.95;;;;;;;26.68;30.26;100662.63;4243227;28;20284;-73
2023/07/09 11:02:25;;;;;;;2.15;0.80;;;;;;;26.58;30.25;100665.25;4259077;28;20260;-73
2023/07/09 11:04:58;;;;;;;4.13;0.87;;;;;;;26.32;30.41;100656.41;4248145;28;25716;-75
2023/07/09 11:07:58;;;;;;;1.48;0.80;;;;;;;26.66;30.73;100662.03;4254211;28;20238;-73
2023/07/09 11:10:29;;;;;;;2.30;1.20;;;;;;;26.48;29.80;100665.84;4265174;28;21125;-74
2023/07/09 11:13:02;;;;;;;4.03;0.95;;;;;;;26.31;30.77;100651.94;4249525;28;21782;-72
2023/07/09 11:15:35;;;;;;;4.07;1.10;;;;;;;26.15;30.36;100670.22;4249150;28;20278;-74
2023/07/09 11:18:05;;;;;;;4.33;0.90;;;;;;;26.43;30.44;100668.56;4234212;28;21072;-75
2023/07/09 11:20:41;;;;;;;2.03;0.95;;;;;;;26.62;30.70;100655.31;4262514;28;21188;-75
2023/07/09 11:23:24;;;;;;;2.13;1.10;;;;;;;27.23;30.52;100668.59;4269417;28;22819;-73
2023/07/09 11:26:14;;;;;;;1.58;0.90;;;;;;;27.76;28.57;100663.56;4242429;28;22394;-73
2023/07/09 11:28:50;;;;;;;1.42;0.80;;;;;;;27.67;28.62;100659.56;4241657;28;20239;-72
2023/07/09 11:31:24;;;;;;;2.83;0.85;;;;;;;27.27;29.65;100658.66;4277040;28;20386;-73
2023/07/09 11:34:17;;;;;;;4.03;1.00;;;;;;;27.07;29.90;100666.66;4263405;28;20234;-75
2023/07/09 11:36:52;;;;;;;3.13;1.03;;;;;;;27.70;28.93;100658.22;4238297;28;20235;-72
2023/07/09 11:39:26;;;;;;;1.33;1.00;;;;;;;28.07;30.48;100650.09;4219927;28;20239;-73
2023/07/09 11:41:53;;;;;;;4.18;0.98;;;;;;;28.33;28.26;100652.31;4258722;28;20233;-73
2023/07/09 11:44:24;;;;;;;1.67;0.80;;;;;;;28.71;27.54;100651.38;4240381;28;20269;-74
2023/07/09 11:47:14;;;;;;;2.85;0.90;;;;;;;28.42;27.82;100651.63;4230679;28;23028;-72
2023/07/09 11:49:51;;;;;;;1.00;0.88;;;;;;;28.32;27.61;100651.50;4236399;28;20270;-74
2023/07/09 11:52:42;;;;;;;3.97;0.90;;;;;;;28.50;28.23;100655.03;4261320;28;20230;-78
2023/07/09 11:55:39;;;;;;;1.38;0.93;;;;;;;28.39;27.46;100649.34;4274707;28;20230;-74
2023/07/09 11:58:09;;;;;;;2.00;1.00;;;;;;;28.13;27.81;100637.09;4236673;28;20466;-71
2023/07/09 12:00:41;;;;;;;1.85;1.08;;;;;;;27.92;28.19;100635.94;4242104;28;25375;-74
2023/07/09 12:03:16;;;;;;;3.30;1.03;;;;;;;28.42;27.56;100640.47;4255344;28;21093;-74
2023/07/09 12:05:49;;;;;;;1.67;0.98;;;;;;;28.14;27.15;100641.56;4238082;28;20953;-75
2023/07/09 12:08:16;;;;;;;1.92;0.90;;;;;;;28.02;26.41;100636.09;4249913;28;20457;-74
2023/07/09 12:10:44;;;;;;;1.95;0.93;;;;;;;28.24;26.77;100640.81;4261570;28;20869;-75
2023/07/09 12:13:12;;;;;;;3.08;0.80;;;;;;;28.40;26.83;100637.13;4245685;28;20332;-75
2023/07/09 12:15:39;;;;;;;4.00;1.00;;;;;;;28.12;27.38;100630.69;4237991;28;20747;-73
2023/07/09 12:18:14;;;;;;;4.45;1.20;;;;;;;28.30;26.24;100631.41;4259561;28;20298;-73
2023/07/09 12:20:47;;;;;;;3.08;1.08;;;;;;;27.86;26.73;100629.50;4280846;28;20342;-73
2023/07/09 12:23:27;;;;;;;3.38;1.20;;;;;;;27.60;26.91;100645.84;4244808;28;20608;-73
2023/07/09 12:25:54;;;;;;;1.58;1.00;;;;;;;27.25;27.58;100630.28;4229240;28;20234;-78
2023/07/09 12:28:22;;;;;;;4.13;0.90;;;;;;;27.38;27.51;100622.69;4215454;28;20237;-69
2023/07/09 12:30:51;;;;;;;1.35;0.80;;;;;;;27.78;27.90;100619.66;4245965;28;20384;-75
2023/07/09 12:33:23;;;;;;;5.05;1.00;;;;;;;28.18;28.38;100623.22;4236648;28;20422;-74
2023/07/09 12:35:56;;;;;;;1.10;0.77;;;;;;;28.65;26.83;100624.56;4208997;28;20234;-73
2023/07/09 12:38:25;;;;;;;2.55;1.20;;;;;;;28.76;26.91;100617.16;4262881;28;20234;-76
2023/07/09 12:40:52;;;;;;;2.88;1.63;;;;;;;28.48;27.36;100621.03;4237398;28;20235;-77
2023/07/09 12:43:24;;;;;;;2.40;1.00;;;;;;;28.40;27.62;100617.63;4248255;28;20230;-74
2023/07/09 12:45:52;;;;;;;3.78;1.00;;;;;;;27.75;28.26;100614.63;4239518;28;20233;-76
2023/07/09 12:48:25;;;;;;;1.50;1.00;;;;;;;27.80;28.64;100619.38;4243872;28;20226;-74
2023/07/09 12:50:51;;;;;;;1.77;1.20;;;;;;;28.06;27.90;100611.41;4242004;28;20230;-74
2023/07/09 12:53:21;;;;;;;4.57;1.20;;;;;;;28.38;28.09;100619.00;4252684;28;21116;-73
2023/07/09 12:55:50;;;;;;;2.53;1.00;;;;;;;28.63;27.62;100622.00;4259701;28;20276;-74
2023/07/09 12:58:39;;;;;;;3.33;1.20;;;;;;;28.54;27.22;100617.19;4249197;28;20245;-73
2023/07/09 13:01:14;;;;;;;3.15;1.30;;;;;;;28.57;27.57;100625.03;4276778;28;20234;-74
2023/07/09 13:03:41;;;;;;;1.90;0.98;;;;;;;28.41;27.71;100616.53;4254532;28;20320;-73
2023/07/09 13:06:29;;;;;;;1.33;0.90;;;;;;;28.44;27.74;100612.38;4228900;28;20392;-74
2023/07/09 13:08:59;;;;;;;3.92;1.00;;;;;;;28.20;28.08;100618.25;4253048;28;20626;-74
2023/07/09 13:11:32;;;;;;;2.33;1.08;;;;;;;28.36;28.42;100610.06;4269311;28;20308;-73
2023/07/09 13:14:02;;;;;;;3.42;1.02;;;;;;;28.08;28.44;100620.34;4253747;28;23185;-72
2023/07/09 13:16:30;;;;;;;3.60;1.17;;;;;;;28.19;28.11;100612.94;4223706;28;20237;-73
2023/07/09 13:18:56;;;;;;;2.38;0.95;;;;;;;28.05;28.22;100610.53;4267827;28;20238;-73
2023/07/09 13:21:23;;;;;;;4.18;1.20;;;;;;;28.42;28.06;100606.22;4227220;28;21633;-71
2023/07/09 13:23:52;;;;;;;1.90;1.13;;;;;;;28.75;27.65;100613.53;4253923;28;20235;-72
2023/07/09 13:26:23;;;;;;;3.45;1.30;;;;;;;28.84;27.12;100616.69;4254068;28;20230;-73